createdAt,value
2018-12-29T00:01:11.666Z,28.70
2018-12-29T00:03:40.897Z,27.70
2018-12-29T00:06:10.066Z,28.53
2018-12-29T00:08:39.227Z,29.57
2018-12-29T00:11:08.405Z,28.87
2018-12-29T00:13:37.905Z,28.30
2018-12-29T00:16:07.117Z,28.13
2018-12-29T00:18:36.284Z,28.67
2018-12-29T00:21:05.464Z,29.50
2018-12-29T00:23:34.604Z,27.67
2018-12-29T00:26:03.748Z,28.37
2018-12-29T00:28:32.998Z,29.90
2018-12-29T00:31:02.136Z,28.40
2018-12-29T00:33:31.315Z,27.80
2018-12-29T00:36:00.475Z,28.63
2018-12-29T00:38:29.633Z,28.57
2018-12-29T00:40:58.871Z,29.00
2018-12-29T00:43:28.060Z,28.17
2018-12-29T00:45:57.244Z,29.60
2018-12-29T00:48:26.382Z,28.33
2018-12-29T00:50:55.692Z,29.27
2018-12-29T00:53:24.842Z,27.80
2018-12-29T00:55:54.069Z,29.63
2018-12-29T00:58:23.233Z,28.90
2018-12-29T01:00:52.501Z,29.67
2018-12-29T01:03:21.727Z,29.90
2018-12-29T01:05:50.853Z,30.07
2018-12-29T01:08:20.011Z,29.43
2018-12-29T01:10:49.179Z,31.30
2018-12-29T01:13:18.311Z,29.63
2018-12-29T01:15:47.452Z,30.63
2018-12-29T01:18:16.626Z,30.80
2018-12-29T01:20:45.807Z,31.07
2018-12-29T01:23:14.960Z,30.63
2018-12-29T01:25:44.152Z,30.47
2018-12-29T01:28:13.295Z,29.20
2018-12-29T01:30:42.450Z,30.43
2018-12-29T01:33:11.611Z,30.20
2018-12-29T01:35:40.788Z,30.03
2018-12-29T01:38:09.930Z,30.70
2018-12-29T01:40:39.064Z,30.07
2018-12-29T01:43:08.190Z,30.70
2018-12-29T01:45:37.354Z,29.67
2018-12-29T01:48:06.532Z,29.13
2018-12-29T01:50:35.665Z,29.50
2018-12-29T01:53:04.839Z,29.37
2018-12-29T01:55:34.067Z,28.40
2018-12-29T01:58:03.290Z,31.63
2018-12-29T02:00:32.407Z,31.30
2018-12-29T02:03:01.542Z,29.73
2018-12-29T02:05:30.732Z,30.13
2018-12-29T02:07:59.916Z,30.50
2018-12-29T02:10:29.039Z,30.87
2018-12-29T02:12:58.173Z,29.80
2018-12-29T02:15:27.340Z,30.30
2018-12-29T02:17:56.506Z,29.13
2018-12-29T02:20:27.260Z,29.87
2018-12-29T02:22:56.367Z,28.70
2018-12-29T02:25:25.496Z,30.43
2018-12-29T02:27:55.770Z,29.23
2018-12-29T02:30:24.931Z,30.23
2018-12-29T02:32:54.147Z,29.83
2018-12-29T02:35:23.309Z,27.97
2018-12-29T02:37:52.556Z,29.83
2018-12-29T02:40:21.712Z,29.80
2018-12-29T02:42:50.922Z,30.23
2018-12-29T02:45:20.170Z,29.40
2018-12-29T02:47:49.314Z,29.77
2018-12-29T02:50:18.448Z,29.60
2018-12-29T02:52:47.647Z,29.30
2018-12-29T02:55:16.804Z,30.50
2018-12-29T02:57:45.989Z,31.30
2018-12-29T03:00:15.134Z,29.67
2018-12-29T03:02:44.270Z,29.53
2018-12-29T03:05:13.507Z,28.97
2018-12-29T03:07:42.712Z,30.90
2018-12-29T03:10:11.920Z,29.17
2018-12-29T03:12:41.076Z,29.50
2018-12-29T03:15:10.248Z,30.40
2018-12-29T03:17:39.465Z,31.10
2018-12-29T03:20:08.648Z,29.63
2018-12-29T03:22:37.785Z,29.53
2018-12-29T03:25:06.884Z,30.63
2018-12-29T03:27:36.150Z,30.77
2018-12-29T03:30:05.478Z,31.57
2018-12-29T03:32:34.668Z,32.00
2018-12-29T03:35:03.814Z,29.90
2018-12-29T03:37:33.009Z,31.07
2018-12-29T03:40:02.186Z,30.63
2018-12-29T03:42:31.435Z,30.30
2018-12-29T03:45:00.596Z,30.67
2018-12-29T03:47:29.737Z,30.83
2018-12-29T03:49:58.884Z,30.67
2018-12-29T03:52:27.990Z,30.73
2018-12-29T03:54:57.173Z,30.60
2018-12-29T03:57:26.364Z,31.20
2018-12-29T03:59:55.593Z,29.27
2018-12-29T04:02:24.727Z,30.90
2018-12-29T04:04:53.950Z,29.07
2018-12-29T04:07:23.088Z,30.07
2018-12-29T04:09:52.313Z,29.03
2018-12-29T04:12:24.342Z,30.67
2018-12-29T04:14:53.629Z,28.60
2018-12-29T04:17:22.848Z,29.57
2018-12-29T04:19:52.073Z,29.40
2018-12-29T04:22:21.314Z,28.73
2018-12-29T04:24:50.440Z,28.47
2018-12-29T04:27:19.620Z,29.77
2018-12-29T04:29:48.816Z,29.30
2018-12-29T04:32:17.983Z,28.37
2018-12-29T04:34:47.162Z,26.80
2018-12-29T04:37:16.305Z,27.13
2018-12-29T04:39:45.449Z,27.53
2018-12-29T04:42:14.693Z,27.10
2018-12-29T04:44:43.891Z,27.33
2018-12-29T04:47:13.038Z,26.40
2018-12-29T04:49:42.212Z,26.93
2018-12-29T04:52:11.388Z,25.83
2018-12-29T04:54:40.639Z,25.03
2018-12-29T04:57:09.904Z,25.30
2018-12-29T04:59:39.073Z,26.23
2018-12-29T05:02:08.236Z,24.87
2018-12-29T05:04:37.513Z,25.57
2018-12-29T05:07:06.792Z,24.90
2018-12-29T05:09:36.026Z,24.83
2018-12-29T05:12:05.154Z,23.87
2018-12-29T05:14:34.321Z,26.90
2018-12-29T05:17:03.556Z,25.40
2018-12-29T05:19:32.765Z,27.17
2018-12-29T05:22:01.869Z,24.73
2018-12-29T05:24:30.978Z,25.70
2018-12-29T05:27:00.124Z,26.47
2018-12-29T05:29:29.257Z,26.33
2018-12-29T05:31:58.406Z,26.07
2018-12-29T05:34:27.598Z,25.83
2018-12-29T05:36:56.789Z,24.60
2018-12-29T05:39:25.941Z,24.20
2018-12-29T05:41:55.072Z,25.80
2018-12-29T05:44:24.219Z,25.90
2018-12-29T05:46:53.390Z,25.87
2018-12-29T05:49:22.634Z,27.37
2018-12-29T05:51:51.781Z,25.53
2018-12-29T05:54:20.886Z,24.13
2018-12-29T05:56:50.017Z,24.87
2018-12-29T05:59:19.139Z,25.63
2018-12-29T06:01:48.310Z,24.30
2018-12-29T06:04:17.460Z,25.40
2018-12-29T06:06:46.612Z,24.77
2018-12-29T06:09:15.750Z,25.37
2018-12-29T06:11:44.942Z,25.30
2018-12-29T06:14:14.107Z,25.37
2018-12-29T06:16:43.257Z,27.13
2018-12-29T06:19:12.404Z,26.63
2018-12-29T06:21:41.648Z,25.67
2018-12-29T06:24:10.751Z,26.20
2018-12-29T06:26:39.862Z,26.37
2018-12-29T06:29:09.012Z,25.23
2018-12-29T06:31:38.176Z,26.70
2018-12-29T06:34:07.321Z,26.53
2018-12-29T06:36:36.459Z,27.43
2018-12-29T06:39:07.568Z,27.53
2018-12-29T06:41:36.721Z,26.83
2018-12-29T06:44:05.924Z,26.83
2018-12-29T06:46:35.393Z,26.77
2018-12-29T06:49:04.562Z,27.63
2018-12-29T06:51:33.711Z,27.00
2018-12-29T06:54:02.861Z,27.40
2018-12-29T06:56:32.050Z,27.33
2018-12-29T06:59:01.161Z,28.13
2018-12-29T07:01:30.329Z,27.20
2018-12-29T07:03:59.450Z,27.60
2018-12-29T07:06:28.587Z,26.77
2018-12-29T07:08:57.737Z,27.27
2018-12-29T07:11:26.870Z,27.33
2018-12-29T07:13:56.015Z,27.77
2018-12-29T07:16:25.117Z,27.67
2018-12-29T07:18:54.381Z,27.57
2018-12-29T07:21:23.531Z,28.57
2018-12-29T07:23:52.752Z,29.73
2018-12-29T07:26:21.950Z,28.90
2018-12-29T07:28:51.144Z,29.57
2018-12-29T07:31:20.355Z,28.33
2018-12-29T07:33:49.507Z,28.60
2018-12-29T07:36:18.689Z,28.77
2018-12-29T07:38:47.843Z,28.07
2018-12-29T07:41:17.043Z,28.63
2018-12-29T07:43:46.180Z,28.33
2018-12-29T07:46:15.327Z,29.50
2018-12-29T07:48:44.507Z,28.23
2018-12-29T07:51:13.657Z,28.67
2018-12-29T07:53:42.833Z,30.07
2018-12-29T07:56:12.027Z,28.77
2018-12-29T07:58:41.164Z,29.63
2018-12-29T08:01:10.317Z,28.63
2018-12-29T08:03:39.527Z,29.27
2018-12-29T08:06:08.651Z,30.77
2018-12-29T08:08:37.799Z,30.90
2018-12-29T08:11:06.961Z,30.33
2018-12-29T08:13:36.381Z,28.30
2018-12-29T08:16:05.563Z,28.83
2018-12-29T08:18:34.724Z,27.83
2018-12-29T08:21:03.874Z,29.77
2018-12-29T08:23:33.033Z,28.93
2018-12-29T08:26:02.202Z,29.13
2018-12-29T08:28:31.296Z,31.03
2018-12-29T08:31:00.442Z,28.90
2018-12-29T08:33:29.580Z,29.00
2018-12-29T08:35:58.724Z,30.10
2018-12-29T08:38:27.936Z,29.20
2018-12-29T08:40:57.077Z,28.53
2018-12-29T08:43:26.219Z,29.13
2018-12-29T08:45:55.565Z,30.03
2018-12-29T08:48:24.736Z,29.50
2018-12-29T08:50:53.996Z,30.60
2018-12-29T08:53:23.193Z,30.57
2018-12-29T08:55:52.465Z,30.73
2018-12-29T08:58:21.722Z,31.20
2018-12-29T09:00:50.868Z,31.77
2018-12-29T09:03:20.043Z,31.00
2018-12-29T09:05:49.219Z,31.27
2018-12-29T09:08:18.344Z,32.23
2018-12-29T09:10:47.830Z,31.53
2018-12-29T09:13:16.946Z,32.37
2018-12-29T09:15:46.061Z,31.57
2018-12-29T09:18:15.235Z,33.50
2018-12-29T09:20:44.420Z,31.27
2018-12-29T09:23:13.570Z,31.37
2018-12-29T09:25:42.714Z,32.67
2018-12-29T09:28:11.902Z,33.43
2018-12-29T09:30:41.024Z,32.57
2018-12-29T09:33:10.149Z,32.97
2018-12-29T09:35:39.361Z,32.27
2018-12-29T09:38:08.547Z,33.50
2018-12-29T09:40:37.728Z,31.57
2018-12-29T09:43:06.824Z,31.97
2018-12-29T09:45:35.987Z,31.63
2018-12-29T09:48:05.201Z,34.17
2018-12-29T09:50:34.356Z,33.60
2018-12-29T09:53:03.487Z,33.37
2018-12-29T09:55:32.671Z,35.03
2018-12-29T09:58:01.786Z,34.70
2018-12-29T10:00:31.008Z,36.83
2018-12-29T10:03:00.141Z,35.30
2018-12-29T10:05:29.326Z,35.53
2018-12-29T10:07:58.465Z,35.17
2018-12-29T10:10:27.624Z,35.30
2018-12-29T10:12:56.782Z,35.30
2018-12-29T10:15:25.945Z,36.43
2018-12-29T10:17:55.217Z,35.33
2018-12-29T10:20:25.015Z,34.47
2018-12-29T10:22:54.362Z,35.07
2018-12-29T10:25:23.510Z,34.40
2018-12-29T10:27:52.799Z,33.77
2018-12-29T10:30:22.036Z,34.43
2018-12-29T10:32:51.219Z,35.03
2018-12-29T10:35:20.369Z,35.80
2018-12-29T10:37:49.600Z,34.87
2018-12-29T10:40:18.851Z,36.23
2018-12-29T10:42:48.013Z,37.87
2018-12-29T10:45:17.160Z,35.20
2018-12-29T10:47:46.309Z,35.40
2018-12-29T10:50:15.460Z,36.30
2018-12-29T10:52:44.601Z,37.07
2018-12-29T10:55:14.034Z,37.73
2018-12-29T10:57:43.200Z,37.93
2018-12-29T11:00:12.581Z,35.80
2018-12-29T11:02:41.907Z,36.83
2018-12-29T11:05:11.049Z,36.47
2018-12-29T11:07:40.238Z,37.13
2018-12-29T11:10:09.457Z,33.27
2018-12-29T11:12:38.601Z,36.47
2018-12-29T11:15:07.829Z,36.77
2018-12-29T11:17:42.133Z,36.30
2018-12-29T11:20:07.955Z,34.03
2018-12-29T11:22:37.081Z,35.07
2018-12-29T11:25:06.369Z,32.53
2018-12-29T11:27:35.510Z,34.13
2018-12-29T11:30:05.025Z,33.23
2018-12-29T11:32:34.181Z,33.93
2018-12-29T11:35:03.395Z,33.40
2018-12-29T11:37:32.573Z,32.23
2018-12-29T11:40:01.761Z,31.33
2018-12-29T11:42:30.919Z,31.40
2018-12-29T11:45:00.175Z,31.03
2018-12-29T11:47:29.353Z,31.47
2018-12-29T11:49:58.547Z,30.50
2018-12-29T11:52:27.725Z,29.93
2018-12-29T11:54:56.905Z,30.43
2018-12-29T11:57:26.138Z,30.33
2018-12-29T11:59:55.345Z,30.30
2018-12-29T12:02:24.836Z,30.17
2018-12-29T12:04:54.178Z,29.83
2018-12-29T12:07:23.440Z,30.13
2018-12-29T12:09:52.689Z,31.07
2018-12-29T12:12:21.952Z,30.27
2018-12-29T12:14:51.506Z,28.27
2018-12-29T12:17:20.783Z,29.27
2018-12-29T12:19:49.955Z,29.27
2018-12-29T12:22:19.204Z,28.53
2018-12-29T12:24:48.486Z,28.13
2018-12-29T12:27:17.723Z,27.67
2018-12-29T12:29:47.321Z,27.77
2018-12-29T12:32:16.533Z,26.93
2018-12-29T12:34:45.779Z,26.63
2018-12-29T12:37:15.029Z,26.77
2018-12-29T12:39:44.649Z,26.83
2018-12-29T12:42:13.911Z,26.67
2018-12-29T12:44:44.086Z,26.27
2018-12-29T12:47:13.672Z,27.53
2018-12-29T12:49:42.929Z,25.97
2018-12-29T12:52:12.172Z,26.73
2018-12-29T12:54:41.435Z,25.13
2018-12-29T12:57:11.119Z,27.20
2018-12-29T12:59:40.667Z,26.53
2018-12-29T13:02:09.904Z,25.90
2018-12-29T13:04:39.477Z,26.10
2018-12-29T13:07:08.805Z,26.07
2018-12-29T13:09:37.936Z,26.80
2018-12-29T13:12:07.203Z,25.00
2018-12-29T13:14:36.430Z,25.30
2018-12-29T13:17:06.122Z,26.20
2018-12-29T13:19:35.364Z,25.90
2018-12-29T13:22:04.631Z,25.07
2018-12-29T13:24:33.872Z,25.27
2018-12-29T13:27:03.127Z,26.07
2018-12-29T13:29:32.312Z,24.77
2018-12-29T13:32:01.749Z,25.20
2018-12-29T13:34:30.987Z,25.67
2018-12-29T13:37:00.215Z,25.70
2018-12-29T13:39:29.535Z,23.77
2018-12-29T13:41:58.782Z,25.30
2018-12-29T13:44:27.953Z,24.77
2018-12-29T13:46:57.221Z,22.93
2018-12-29T13:49:26.458Z,24.07
2018-12-29T13:51:56.145Z,23.53
2018-12-29T13:54:25.352Z,24.57
2018-12-29T13:56:54.738Z,23.23
2018-12-29T13:59:23.875Z,23.97
2018-12-29T14:01:53.162Z,23.50
2018-12-29T14:04:22.310Z,23.13
2018-12-29T14:06:51.452Z,22.20
2018-12-29T14:09:20.592Z,21.97
2018-12-29T14:11:49.748Z,22.27
2018-12-29T14:14:18.892Z,21.57
2018-12-29T14:16:48.148Z,21.43
2018-12-29T14:19:17.351Z,21.47
2018-12-29T14:21:46.561Z,19.60
2018-12-29T14:24:15.777Z,19.87
2018-12-29T14:26:45.431Z,19.53
2018-12-29T14:29:14.716Z,19.70
2018-12-29T14:31:43.991Z,18.87
2018-12-29T14:34:13.200Z,19.07
2018-12-29T14:36:42.545Z,19.37
2018-12-29T14:39:12.131Z,19.73
2018-12-29T14:41:41.345Z,20.43
2018-12-29T14:44:10.574Z,20.53
2018-12-29T14:46:39.787Z,19.03
2018-12-29T14:49:09.168Z,20.40
2018-12-29T14:51:38.343Z,19.90
2018-12-29T14:54:07.598Z,20.17
2018-12-29T14:56:36.813Z,19.93
2018-12-29T14:59:06.028Z,21.27
2018-12-29T15:01:35.224Z,21.10
2018-12-29T15:04:04.377Z,21.50
2018-12-29T15:06:33.646Z,21.87
2018-12-29T15:09:02.823Z,22.37
2018-12-29T15:11:32.033Z,23.03
2018-12-29T15:14:01.283Z,22.13
2018-12-29T15:16:30.491Z,23.33
2018-12-29T15:18:59.726Z,22.80
2018-12-29T15:21:29.381Z,22.80
2018-12-29T15:23:58.661Z,21.40
2018-12-29T15:26:27.890Z,20.17
2018-12-29T15:28:57.066Z,20.40
2018-12-29T15:31:26.310Z,19.63
2018-12-29T15:33:55.784Z,18.77
2018-12-29T15:36:25.380Z,18.03
2018-12-29T15:38:54.808Z,17.73
2018-12-29T15:41:24.170Z,17.57
2018-12-29T15:43:54.115Z,16.10
2018-12-29T15:46:23.551Z,16.87
2018-12-29T15:48:52.899Z,16.70
2018-12-29T15:51:22.785Z,15.47
2018-12-29T15:53:54.518Z,15.63
2018-12-29T15:56:24.062Z,15.77
2018-12-29T15:58:53.398Z,15.37
2018-12-29T16:01:23.118Z,15.77
2018-12-29T16:03:52.497Z,15.20
2018-12-29T16:06:21.770Z,13.43
2018-12-29T16:08:51.023Z,12.90
2018-12-29T16:11:26.128Z,13.27
2018-12-29T16:13:51.461Z,12.43
2018-12-29T16:16:20.692Z,12.13
2018-12-29T16:18:49.903Z,12.63
2018-12-29T16:21:19.561Z,12.93
2018-12-29T16:23:48.837Z,13.07
2018-12-29T16:26:18.140Z,12.90
2018-12-29T16:28:47.848Z,12.97
2018-12-29T16:31:17.138Z,13.47
2018-12-29T16:33:53.662Z,13.70
2018-12-29T16:36:17.354Z,13.43
2018-12-29T16:38:46.645Z,12.93
2018-12-29T16:41:15.940Z,13.27
2018-12-29T16:43:45.180Z,13.07
2018-12-29T16:46:14.411Z,13.23
2018-12-29T16:48:43.708Z,13.77
2018-12-29T16:51:12.950Z,13.30
2018-12-29T16:53:42.529Z,13.07
2018-12-29T16:56:11.856Z,13.37
2018-12-29T16:58:41.115Z,13.13
2018-12-29T17:01:10.346Z,12.77
2018-12-29T17:03:39.876Z,13.17
2018-12-29T17:06:09.117Z,13.70
2018-12-29T17:08:38.353Z,13.27
2018-12-29T17:11:07.585Z,13.17
2018-12-29T17:13:37.198Z,13.50
2018-12-29T17:16:06.481Z,13.03
2018-12-29T17:18:35.744Z,14.73
2018-12-29T17:21:05.356Z,14.63
2018-12-29T17:23:34.613Z,13.97
2018-12-29T17:26:03.934Z,14.77
2018-12-29T17:28:33.486Z,14.77
2018-12-29T17:31:02.737Z,16.20
2018-12-29T17:33:31.986Z,15.67
2018-12-29T17:36:01.211Z,16.43
2018-12-29T17:38:30.517Z,16.67
2018-12-29T17:41:00.171Z,17.33
2018-12-29T17:43:29.464Z,17.00
2018-12-29T17:45:58.670Z,17.20
2018-12-29T17:48:27.925Z,18.47
2018-12-29T17:50:57.082Z,17.13
2018-12-29T17:53:26.638Z,17.50
2018-12-29T17:55:55.936Z,17.60
2018-12-29T17:58:25.177Z,19.50
2018-12-29T18:00:54.406Z,19.30
2018-12-29T18:03:23.645Z,19.13
2018-12-29T18:05:53.129Z,20.40
2018-12-29T18:08:22.372Z,20.07
2018-12-29T18:10:51.617Z,19.07
2018-12-29T18:13:21.155Z,19.90
2018-12-29T18:15:50.399Z,20.23
2018-12-29T18:18:19.700Z,20.53
2018-12-29T18:20:48.926Z,21.10
2018-12-29T18:23:18.083Z,20.43
2018-12-29T18:25:47.350Z,20.30
2018-12-29T18:28:16.582Z,20.00
2018-12-29T18:30:45.780Z,19.77
2018-12-29T18:33:15.384Z,19.33
2018-12-29T18:35:44.599Z,20.47
2018-12-29T18:38:13.826Z,20.83
2018-12-29T18:40:43.090Z,20.30
2018-12-29T18:43:12.288Z,19.93
2018-12-29T18:45:41.585Z,19.77
2018-12-29T18:48:11.138Z,19.73
2018-12-29T18:50:40.374Z,19.33
2018-12-29T18:53:09.607Z,19.73
2018-12-29T18:55:38.837Z,19.07
2018-12-29T18:58:08.095Z,18.63
2018-12-29T19:00:37.652Z,17.43
2018-12-29T19:03:06.900Z,18.37
2018-12-29T19:05:36.152Z,17.40
2018-12-29T19:08:05.459Z,18.37
2018-12-29T19:10:34.701Z,18.33
2018-12-29T19:13:04.369Z,17.80
2018-12-29T19:15:33.914Z,17.17
2018-12-29T19:18:03.202Z,17.37
2018-12-29T19:20:32.766Z,17.60
2018-12-29T19:23:02.286Z,16.27
2018-12-29T19:25:31.546Z,15.73
2018-12-29T19:28:01.101Z,16.17
2018-12-29T19:30:30.633Z,15.10
2018-12-29T19:33:00.287Z,15.93
2018-12-29T19:35:29.572Z,13.50
2018-12-29T19:37:58.852Z,13.30
2018-12-29T19:40:28.134Z,12.40
2018-12-29T19:42:57.799Z,11.83
2018-12-29T19:45:27.034Z,11.73
2018-12-29T19:47:56.613Z,10.73
2018-12-29T19:50:25.966Z,9.33
2018-12-29T19:52:55.336Z,9.70
2018-12-29T19:55:24.592Z,8.90
2018-12-29T19:57:53.931Z,6.90
2018-12-29T20:00:23.701Z,6.07
2018-12-29T20:02:53.296Z,4.80
2018-12-29T20:05:22.834Z,3.00
2018-12-29T20:07:52.165Z,2.77
2018-12-29T20:10:21.339Z,2.63
2018-12-29T20:12:50.595Z,3.10
2018-12-29T20:15:20.274Z,2.30
2018-12-29T20:17:49.481Z,2.23
2018-12-29T20:20:18.661Z,2.60
2018-12-29T20:22:47.903Z,2.37
2018-12-29T20:25:17.102Z,2.80
2018-12-29T20:27:46.684Z,2.93
2018-12-29T20:30:15.888Z,1.90
2018-12-29T20:32:45.107Z,2.27
2018-12-29T20:35:14.283Z,3.20
2018-12-29T20:37:43.520Z,2.53
2018-12-29T20:40:13.167Z,2.97
2018-12-29T20:42:42.427Z,2.87
2018-12-29T20:45:11.696Z,3.20
2018-12-29T20:47:40.930Z,3.60
2018-12-29T20:50:11.946Z,3.63
2018-12-29T20:52:41.116Z,3.90
2018-12-29T20:55:10.364Z,3.30
2018-12-29T20:57:39.577Z,3.17
2018-12-29T21:00:10.206Z,3.97
2018-12-29T21:02:39.464Z,3.93
2018-12-29T21:05:09.057Z,4.00
2018-12-29T21:07:38.286Z,4.77
2018-12-29T21:10:07.727Z,4.27
2018-12-29T21:12:36.979Z,3.90
2018-12-29T21:15:06.410Z,3.83
2018-12-29T21:17:35.666Z,3.60
2018-12-29T21:20:05.361Z,4.00
2018-12-29T21:22:34.611Z,3.90
2018-12-29T21:25:03.811Z,3.47
2018-12-29T21:27:33.081Z,3.53
2018-12-29T21:30:02.320Z,3.30
2018-12-29T21:32:31.753Z,3.40
2018-12-29T21:35:01.029Z,3.33
2018-12-29T21:37:30.316Z,3.43
2018-12-29T21:39:59.602Z,3.37
2018-12-29T21:42:28.897Z,3.37
2018-12-29T21:44:58.441Z,3.43
2018-12-29T21:47:27.689Z,4.17
2018-12-29T21:49:56.901Z,3.17
2018-12-29T21:52:26.140Z,3.47
2018-12-29T21:54:55.519Z,3.70
2018-12-29T21:57:24.799Z,2.87
2018-12-29T21:59:54.126Z,3.67
2018-12-29T22:02:23.415Z,3.27
2018-12-29T22:04:52.792Z,3.73
2018-12-29T22:07:22.085Z,3.17
2018-12-29T22:09:51.363Z,4.43
2018-12-29T22:12:20.596Z,4.33
2018-12-29T22:14:49.847Z,4.17
2018-12-29T22:17:19.152Z,3.57
2018-12-29T22:19:48.395Z,3.40
2018-12-29T22:22:17.648Z,3.47
2018-12-29T22:24:46.955Z,4.33
2018-12-29T22:27:16.185Z,3.50
2018-12-29T22:29:45.472Z,3.87
2018-12-29T22:32:14.733Z,3.60
2018-12-29T22:34:44.066Z,3.17
2018-12-29T22:37:13.659Z,3.00
2018-12-29T22:39:43.024Z,3.03
2018-12-29T22:42:12.295Z,3.83
2018-12-29T22:44:41.536Z,3.20
2018-12-29T22:47:10.799Z,3.90
2018-12-29T22:49:40.454Z,3.13
2018-12-29T22:52:09.709Z,3.07
2018-12-29T22:54:38.993Z,3.00
2018-12-29T22:57:08.231Z,3.17
2018-12-29T22:59:37.459Z,3.70
2018-12-29T23:02:07.027Z,3.33
2018-12-29T23:04:36.320Z,3.80
2018-12-29T23:07:05.889Z,3.60
2018-12-29T23:09:35.102Z,3.90
2018-12-29T23:12:04.381Z,3.50
2018-12-29T23:14:33.621Z,3.87
2018-12-29T23:17:03.215Z,4.03
2018-12-29T23:19:32.505Z,4.00
2018-12-29T23:22:01.740Z,3.23
2018-12-29T23:24:31.001Z,3.30
2018-12-29T23:27:00.303Z,3.63
2018-12-29T23:29:29.568Z,3.80
2018-12-29T23:31:58.715Z,3.97
2018-12-29T23:34:28.378Z,4.23
2018-12-29T23:36:57.614Z,3.40
2018-12-29T23:39:26.832Z,3.73
2018-12-29T23:41:56.387Z,4.00
2018-12-29T23:44:25.638Z,3.60
2018-12-29T23:46:55.012Z,4.20
2018-12-29T23:49:24.595Z,4.10
2018-12-29T23:51:54.319Z,3.50
2018-12-29T23:54:23.564Z,4.73
2018-12-29T23:56:53.107Z,3.30
2018-12-29T23:59:22.364Z,3.43
